createdAt,value
2023-03-28T00:01:03.747Z,7.31
2023-03-28T00:03:36.580Z,7.31
2023-03-28T00:06:09.805Z,7.40
2023-03-28T00:08:40.352Z,7.20
2023-03-28T00:11:11.490Z,6.99
2023-03-28T00:13:39.934Z,6.98
2023-03-28T00:16:09.821Z,7.08
2023-03-28T00:18:40.340Z,6.90
2023-03-28T00:21:23.477Z,6.84
2023-03-28T00:23:53.617Z,6.69
2023-03-28T00:26:25.077Z,6.69
2023-03-28T00:28:53.472Z,6.55
2023-03-28T00:31:22.396Z,6.54
2023-03-28T00:33:52.006Z,6.64
2023-03-28T00:36:23.128Z,6.58
2023-03-28T00:38:52.425Z,6.50
2023-03-28T00:41:21.998Z,6.44
2023-03-28T00:43:52.813Z,6.44
2023-03-28T00:46:26.467Z,6.22
2023-03-28T00:48:58.791Z,6.23
2023-03-28T00:51:31.342Z,6.31
2023-03-28T00:54:03.273Z,6.18
2023-03-28T00:56:35.646Z,6.18
2023-03-28T00:59:08.048Z,6.15
2023-03-28T01:01:36.407Z,6.18
2023-03-28T01:04:06.889Z,6.17
2023-03-28T01:06:40.893Z,6.37
2023-03-28T01:09:10.352Z,6.22
2023-03-28T01:11:41.318Z,6.03
2023-03-28T01:14:13.322Z,6.12
2023-03-28T01:16:43.180Z,6.05
2023-03-28T01:19:22.095Z,6.14
2023-03-28T01:22:26.753Z,5.93
2023-03-28T01:25:38.624Z,5.80
2023-03-28T01:28:17.869Z,5.67
2023-03-28T01:31:11.043Z,5.73
2023-03-28T01:34:24.256Z,5.69
2023-03-28T01:37:06.354Z,5.59
2023-03-28T01:39:46.588Z,5.41
2023-03-28T01:42:23.727Z,5.32
2023-03-28T01:45:07.043Z,5.39
2023-03-28T01:47:41.083Z,5.28
2023-03-28T01:50:18.688Z,5.21
2023-03-28T01:52:55.081Z,5.11
2023-03-28T01:55:30.315Z,5.22
2023-03-28T01:58:04.891Z,5.25
2023-03-28T02:00:36.454Z,5.25
2023-03-28T02:03:15.337Z,5.18
2023-03-28T02:05:46.734Z,5.22
2023-03-28T02:08:19.194Z,5.11
2023-03-28T02:10:48.845Z,5.28
2023-03-28T02:13:21.969Z,5.20
2023-03-28T02:15:53.653Z,5.26
2023-03-28T02:18:26.389Z,5.18
2023-03-28T02:20:58.066Z,5.15
2023-03-28T02:23:32.202Z,5.15
2023-03-28T02:26:00.320Z,5.13
2023-03-28T02:28:29.438Z,5.09
2023-03-28T02:30:57.540Z,5.05
2023-03-28T02:33:39.091Z,5.07
2023-03-28T02:36:32.308Z,5.02
2023-03-28T02:39:25.485Z,5.02
2023-03-28T02:42:08.493Z,4.88
2023-03-28T02:44:54.928Z,4.94
2023-03-28T02:47:32.436Z,4.90
2023-03-28T02:50:14.294Z,4.70
2023-03-28T02:52:54.408Z,4.72
2023-03-28T02:55:31.978Z,4.73
2023-03-28T02:58:08.299Z,4.62
2023-03-28T03:00:37.503Z,4.54
2023-03-28T03:03:05.790Z,4.63
2023-03-28T03:05:33.839Z,4.67
2023-03-28T03:08:01.888Z,4.56
2023-03-28T03:10:31.395Z,4.54
2023-03-28T03:12:59.373Z,4.42
2023-03-28T03:15:31.022Z,4.41
2023-03-28T03:17:59.360Z,4.26
2023-03-28T03:20:28.096Z,4.41
2023-03-28T03:22:56.775Z,4.43
2023-03-28T03:25:24.738Z,4.37
2023-03-28T03:27:54.322Z,4.41
2023-03-28T03:30:22.364Z,4.30
2023-03-28T03:32:50.369Z,4.35
2023-03-28T03:35:20.110Z,4.49
2023-03-28T03:37:48.440Z,4.45
2023-03-28T03:40:18.155Z,4.46
2023-03-28T03:42:46.104Z,4.45
2023-03-28T03:45:15.878Z,4.46
2023-03-28T03:47:44.290Z,4.44
2023-03-28T03:50:13.891Z,4.26
2023-03-28T03:52:42.043Z,4.19
2023-03-28T03:55:11.647Z,4.31
2023-03-28T03:57:39.714Z,4.42
2023-03-28T04:00:11.334Z,4.41
2023-03-28T04:02:41.398Z,4.35
2023-03-28T04:05:09.730Z,4.23
2023-03-28T04:07:38.374Z,4.23
2023-03-28T04:10:07.516Z,4.44
2023-03-28T07:07:34.974Z,5.98
2023-03-28T07:10:02.927Z,6.05
2023-03-28T07:12:31.459Z,6.22
2023-03-28T07:14:59.387Z,6.22
2023-03-28T07:17:27.336Z,6.21
2023-03-28T07:19:55.266Z,6.14
2023-03-28T07:22:23.157Z,6.24
2023-03-28T07:24:52.457Z,6.33
2023-03-28T07:27:20.596Z,6.30
2023-03-28T07:29:48.608Z,6.13
2023-03-28T07:32:17.180Z,6.29
2023-03-28T07:34:45.117Z,6.12
2023-03-28T07:37:13.041Z,6.33
2023-03-28T07:39:43.727Z,6.52
2023-03-28T07:42:14.833Z,6.69
2023-03-28T07:44:43.173Z,6.70
2023-03-28T07:47:11.438Z,6.89
2023-03-28T07:49:39.633Z,7.03
2023-03-28T07:52:07.887Z,7.08
2023-03-28T07:54:35.850Z,7.07
2023-03-28T07:57:03.921Z,7.21
2023-03-28T07:59:33.327Z,7.27
2023-03-28T08:02:01.717Z,7.55
2023-03-28T08:04:29.629Z,7.82
2023-03-28T08:06:58.098Z,8.06
2023-03-28T08:09:26.150Z,8.51
2023-03-28T08:11:54.135Z,8.84
2023-03-28T08:14:22.170Z,8.73
2023-03-28T08:16:52.115Z,9.18
2023-03-28T08:19:20.009Z,9.30
2023-03-28T08:21:47.963Z,9.30
2023-03-28T08:24:25.442Z,9.36
2023-03-28T08:27:01.738Z,9.48
2023-03-28T08:29:29.685Z,9.59
2023-03-28T08:31:59.124Z,9.50
2023-03-28T08:34:27.191Z,9.50
2023-03-28T08:36:55.102Z,9.24
2023-03-28T08:39:23.413Z,9.00
2023-03-28T08:42:21.833Z,9.10
2023-03-28T08:45:04.599Z,9.21
2023-03-28T08:47:37.150Z,9.31
2023-03-28T08:50:14.606Z,9.57
2023-03-28T08:52:44.571Z,9.82
2023-03-28T08:55:25.316Z,9.90
2023-03-28T08:57:55.558Z,9.85
2023-03-28T09:00:27.612Z,9.78
2023-03-28T09:02:57.381Z,9.52
2023-03-28T09:05:34.676Z,9.49
2023-03-28T09:08:20.655Z,9.37
2023-03-28T09:10:53.104Z,9.44
2023-03-28T09:13:32.446Z,9.33
2023-03-28T09:16:15.282Z,9.42
2023-03-28T09:19:07.526Z,9.34
2023-03-28T09:21:47.249Z,9.37
2023-03-28T09:24:41.569Z,9.01
2023-03-28T09:27:20.706Z,8.77
2023-03-28T09:29:50.395Z,8.86
2023-03-28T09:32:23.750Z,8.43
2023-03-28T09:34:53.913Z,8.45
2023-03-28T09:37:31.987Z,8.48
2023-03-28T09:40:08.815Z,8.53
2023-03-28T09:42:46.151Z,8.24
2023-03-28T09:45:27.180Z,8.46
2023-03-28T09:47:55.203Z,8.49
2023-03-28T09:50:26.341Z,8.36
2023-03-28T09:52:57.275Z,8.65
2023-03-28T09:55:27.441Z,8.69
2023-03-28T09:58:03.511Z,8.66
2023-03-28T10:00:36.934Z,8.60
2023-03-28T10:03:06.187Z,8.70
2023-03-28T10:05:38.847Z,8.62
2023-03-28T10:08:19.853Z,8.51
2023-03-28T10:10:56.313Z,8.55
2023-03-28T10:13:24.664Z,8.79
2023-03-28T10:15:53.678Z,8.57
2023-03-28T10:18:23.142Z,8.63
2023-03-28T10:20:52.473Z,8.63
2023-03-28T10:23:23.395Z,8.59
2023-03-28T10:25:53.489Z,8.68
2023-03-28T10:28:29.666Z,8.75
2023-03-28T10:31:01.057Z,8.73
2023-03-28T10:33:34.280Z,8.52
2023-03-28T10:36:06.457Z,8.53
2023-03-28T10:38:38.461Z,8.54
2023-03-28T10:41:10.667Z,8.66
2023-03-28T10:43:40.786Z,8.74
2023-03-28T10:46:14.260Z,8.80
2023-03-28T10:48:47.191Z,8.67
2023-03-28T10:51:22.024Z,8.52
2023-03-28T10:54:03.674Z,8.47
2023-03-28T10:56:38.722Z,8.37
2023-03-28T10:59:24.697Z,8.24
2023-03-28T11:02:10.573Z,8.37
2023-03-28T11:04:56.852Z,8.33
2023-03-28T11:07:32.637Z,8.49
2023-03-28T11:10:12.250Z,8.55
2023-03-28T11:12:56.667Z,8.66
2023-03-28T11:15:30.491Z,8.55
2023-03-28T11:18:08.307Z,8.19
2023-03-28T11:20:46.095Z,8.32
2023-03-28T11:23:38.877Z,8.32
2023-03-28T11:26:10.542Z,8.34
2023-03-28T11:28:56.654Z,8.25
2023-03-28T11:31:30.653Z,8.42
2023-03-28T11:34:05.108Z,8.58
2023-03-28T11:36:38.957Z,8.51
2023-03-28T11:39:18.198Z,8.20
2023-03-28T11:41:49.633Z,8.36
2023-03-28T11:44:22.174Z,8.40
2023-03-28T11:46:54.564Z,8.36
2023-03-28T11:49:28.487Z,8.46
2023-03-28T11:52:02.659Z,8.53
2023-03-28T11:54:37.149Z,8.61
2023-03-28T11:57:13.054Z,8.57
2023-03-28T11:59:47.605Z,8.53
2023-03-28T12:02:28.608Z,8.68
2023-03-28T12:05:00.565Z,8.69
2023-03-28T12:07:35.930Z,8.64
2023-03-28T12:10:18.575Z,8.53
2023-03-28T12:12:57.112Z,8.64
2023-03-28T12:15:34.651Z,8.75
2023-03-28T12:18:07.712Z,8.66
2023-03-28T12:20:45.267Z,8.68
2023-03-28T12:23:22.374Z,8.55
2023-03-28T12:26:04.011Z,8.49
2023-03-28T12:28:38.913Z,8.61
2023-03-28T12:31:14.723Z,8.49
2023-03-28T12:33:54.285Z,8.55
2023-03-28T12:36:28.572Z,8.50
2023-03-28T12:39:00.147Z,8.60
2023-03-28T12:41:32.522Z,8.55
2023-03-28T12:44:05.075Z,8.72
2023-03-28T12:46:45.905Z,8.82
2023-03-28T12:49:19.994Z,8.90
2023-03-28T12:51:50.165Z,8.86
2023-03-28T12:54:27.389Z,9.16
2023-03-28T12:57:11.760Z,9.31
2023-03-28T12:59:54.238Z,9.20
2023-03-28T13:02:32.321Z,9.34
2023-03-28T13:05:12.974Z,9.17
2023-03-28T13:07:56.685Z,9.18
2023-03-28T13:10:33.894Z,9.11
2023-03-28T13:13:14.518Z,9.17
2023-03-28T13:16:02.238Z,9.15
2023-03-28T13:18:32.767Z,9.13
2023-03-28T13:21:04.383Z,9.19
2023-03-28T13:23:36.836Z,9.12
2023-03-28T13:26:06.826Z,9.20
2023-03-28T13:28:43.356Z,9.05
2023-03-28T13:31:22.481Z,9.03
2023-03-28T13:33:54.695Z,9.04
2023-03-28T13:36:26.190Z,9.16
2023-03-28T13:39:07.244Z,9.11
2023-03-28T13:41:55.227Z,9.05
2023-03-28T13:44:33.340Z,9.07
2023-03-28T13:47:01.497Z,8.80
2023-03-28T13:49:38.184Z,8.97
2023-03-28T13:52:11.050Z,9.07
2023-03-28T13:54:38.990Z,9.06
2023-03-28T13:57:13.035Z,9.09
2023-03-28T13:59:54.058Z,8.98
2023-03-28T14:02:31.381Z,9.14
2023-03-28T14:05:13.049Z,8.97
2023-03-28T14:07:41.471Z,9.04
2023-03-28T14:10:23.889Z,9.13
2023-03-28T14:12:54.132Z,9.22
2023-03-28T14:15:25.839Z,9.31
2023-03-28T14:17:55.825Z,9.11
2023-03-28T14:20:24.495Z,9.03
2023-03-28T14:23:00.279Z,9.18
2023-03-28T14:25:30.741Z,9.32
2023-03-28T14:28:06.697Z,9.29
2023-03-28T14:30:42.555Z,9.31
2023-03-28T14:33:20.580Z,9.34
2023-03-28T14:35:58.850Z,9.37
2023-03-28T14:38:33.006Z,9.27
2023-03-28T14:41:08.751Z,9.39
2023-03-28T14:43:37.197Z,9.43
2023-03-28T14:46:09.958Z,9.39
2023-03-28T14:48:39.336Z,9.46
2023-03-28T14:51:08.123Z,9.62
2023-03-28T14:53:39.235Z,9.62
2023-03-28T14:56:10.585Z,9.64
2023-03-28T14:58:41.472Z,9.69
2023-03-28T15:01:21.774Z,9.46
2023-03-28T15:03:54.792Z,9.55
2023-03-28T15:06:24.453Z,9.67
2023-03-28T15:08:54.526Z,9.62
2023-03-28T15:11:27.845Z,9.62
2023-03-28T15:14:03.137Z,9.56
2023-03-28T15:16:37.862Z,9.48
2023-03-28T15:19:09.210Z,9.46
2023-03-28T15:21:39.868Z,9.14
2023-03-28T15:24:12.889Z,8.54
2023-03-28T15:26:44.798Z,8.62
2023-03-28T15:29:17.421Z,8.47
2023-03-28T15:31:47.820Z,8.19
2023-03-28T15:34:21.712Z,8.22
2023-03-28T15:36:52.601Z,7.93
2023-03-28T15:39:25.555Z,8.09
2023-03-28T15:42:00.103Z,7.89
2023-03-28T15:44:30.073Z,7.89
2023-03-28T15:47:02.890Z,8.04
2023-03-28T15:49:36.621Z,8.15
2023-03-28T15:52:07.205Z,7.95
2023-03-28T15:54:40.004Z,7.86
2023-03-28T15:57:08.456Z,7.83
2023-03-28T15:59:39.386Z,7.88
2023-03-28T16:02:30.459Z,7.92
2023-03-28T16:05:02.810Z,7.82
2023-03-28T16:07:36.237Z,7.64
2023-03-28T16:10:04.818Z,7.64
2023-03-28T16:12:33.388Z,7.24
2023-03-28T16:15:03.785Z,7.15
2023-03-28T16:17:33.739Z,7.23
2023-03-28T16:20:01.690Z,6.94
2023-03-28T16:22:29.630Z,6.94
2023-03-28T16:24:57.551Z,6.83
2023-03-28T16:27:25.525Z,6.83
2023-03-28T16:29:53.425Z,6.63
2023-03-28T16:32:23.935Z,6.43
2023-03-28T16:34:53.275Z,6.20
2023-03-28T16:37:21.903Z,6.08
2023-03-28T16:39:49.825Z,5.93
2023-03-28T16:42:20.895Z,5.69
2023-03-28T16:44:48.920Z,5.70
2023-03-28T16:47:16.840Z,5.64
2023-03-28T16:49:44.774Z,5.73
2023-03-28T16:52:14.210Z,5.63
2023-03-28T16:54:42.228Z,5.67
2023-03-28T16:57:10.332Z,5.48
2023-03-28T16:59:38.365Z,5.38
2023-03-28T17:02:06.666Z,5.34
2023-03-28T17:04:36.029Z,5.18
2023-03-28T17:07:03.961Z,5.11
2023-03-28T17:09:34.687Z,4.98
2023-03-28T17:12:02.628Z,4.88
2023-03-28T17:14:30.581Z,4.86
2023-03-28T17:16:58.580Z,4.90
2023-03-28T17:19:26.661Z,4.89
2023-03-28T17:21:55.754Z,5.00
2023-03-28T17:24:23.755Z,4.95
2023-03-28T17:26:53.079Z,4.80
2023-03-28T17:29:21.575Z,4.91
2023-03-28T17:31:49.633Z,5.01
2023-03-28T17:34:17.858Z,4.83
2023-03-28T17:36:45.873Z,4.97
2023-03-28T17:39:13.988Z,5.07
2023-03-28T17:41:42.581Z,4.71
2023-03-28T17:44:11.982Z,4.33
2023-03-28T17:46:40.048Z,4.23
2023-03-28T17:49:08.244Z,4.17
2023-03-28T17:51:36.299Z,3.97
2023-03-28T17:54:06.855Z,3.80
2023-03-28T17:56:34.894Z,3.96
2023-03-28T17:59:02.828Z,4.12
2023-03-28T18:01:32.561Z,4.03
2023-03-28T18:04:00.638Z,4.14
2023-03-28T18:06:28.893Z,4.16
2023-03-28T18:08:56.874Z,4.18
2023-03-28T18:11:24.839Z,4.24
2023-03-28T18:13:56.811Z,4.37
2023-03-28T18:16:25.082Z,4.33
2023-03-28T18:18:55.347Z,4.26
2023-03-28T18:21:23.243Z,4.18
2023-03-28T18:23:51.784Z,4.20
2023-03-28T18:26:19.948Z,3.97
2023-03-28T18:28:47.891Z,4.15
2023-03-28T18:31:19.584Z,4.06
2023-03-28T18:33:47.587Z,3.83
2023-03-28T18:36:17.113Z,3.73
2023-03-28T18:38:46.635Z,3.56
2023-03-28T18:41:15.433Z,3.92
2023-03-28T18:43:45.560Z,3.97
2023-03-28T18:46:15.972Z,3.61
2023-03-28T18:48:44.893Z,3.52
2023-03-28T18:51:13.913Z,3.54
2023-03-28T18:53:43.799Z,3.59
2023-03-28T18:56:13.678Z,3.55
2023-03-28T18:58:41.932Z,3.55
2023-03-28T19:01:11.471Z,3.44
2023-03-28T19:03:41.780Z,3.34
2023-03-28T19:06:11.492Z,3.39
2023-03-28T19:08:40.352Z,3.38
2023-03-28T19:11:11.877Z,3.64
2023-03-28T19:13:40.086Z,3.75
2023-03-28T19:16:10.341Z,3.79
2023-03-28T19:18:40.234Z,3.86
2023-03-28T19:21:09.179Z,3.92
2023-03-28T19:23:38.162Z,3.74
2023-03-28T19:26:08.251Z,3.65
2023-03-28T19:28:39.181Z,3.73
2023-03-28T19:31:09.757Z,3.61
2023-03-28T19:33:38.583Z,3.42
2023-03-28T19:36:07.222Z,3.52
2023-03-28T19:38:37.334Z,3.57
2023-03-28T19:41:10.677Z,3.69
2023-03-28T19:43:40.909Z,3.96
2023-03-28T19:46:12.119Z,4.04
2023-03-28T19:48:41.381Z,4.10
2023-03-28T19:51:09.335Z,4.10
2023-03-28T19:53:37.322Z,3.87
2023-03-28T19:56:06.766Z,3.98
2023-03-28T19:58:35.015Z,3.93
2023-03-28T20:01:04.928Z,3.83
2023-03-28T20:03:32.889Z,3.87
2023-03-28T20:06:04.361Z,3.89
2023-03-28T20:08:34.376Z,3.98
2023-03-28T20:11:03.212Z,4.03
2023-03-28T20:13:31.528Z,4.00
2023-03-28T20:16:03.012Z,4.02
2023-03-28T20:18:32.867Z,4.11
2023-03-28T20:21:02.633Z,4.22
2023-03-28T20:23:32.686Z,4.20
2023-03-28T20:26:01.717Z,4.06
2023-03-28T20:28:32.015Z,3.76
2023-03-28T20:31:00.556Z,3.81
2023-03-28T20:33:28.801Z,3.68
2023-03-28T20:35:59.386Z,3.60
2023-03-28T20:38:27.409Z,3.72
2023-03-28T20:40:55.384Z,3.66
2023-03-28T20:43:26.756Z,3.41
2023-03-28T20:45:56.496Z,3.08
2023-03-28T20:48:34.448Z,2.97
2023-03-28T20:51:05.818Z,2.97
2023-03-28T20:53:34.857Z,3.20
2023-03-28T20:56:04.698Z,3.22
2023-03-28T20:58:33.368Z,3.18
2023-03-28T21:01:04.266Z,2.88
2023-03-28T21:03:46.805Z,2.61
2023-03-28T21:06:20.512Z,2.65
2023-03-28T21:08:50.059Z,2.39
2023-03-28T21:11:19.796Z,2.36
2023-03-28T21:13:47.826Z,2.34
2023-03-28T21:16:17.820Z,2.33
2023-03-28T21:18:46.829Z,2.44
2023-03-28T21:21:17.293Z,2.48
2023-03-28T21:23:46.750Z,2.36
2023-03-28T21:26:17.378Z,2.29
2023-03-28T21:28:46.050Z,2.16
2023-03-28T21:31:16.208Z,1.97
2023-03-28T21:33:44.387Z,2.04
2023-03-28T21:36:15.994Z,1.91
2023-03-28T21:38:46.254Z,1.83
2023-03-28T21:41:14.970Z,1.75
2023-03-28T21:43:43.396Z,1.92
2023-03-28T21:46:13.653Z,1.99
2023-03-28T21:48:42.303Z,2.07
2023-03-28T21:51:10.391Z,2.11
2023-03-28T21:53:39.672Z,2.13
2023-03-28T21:56:11.721Z,2.09
2023-03-28T21:58:40.551Z,2.23
2023-03-28T22:01:09.015Z,2.25
2023-03-28T22:03:38.117Z,2.22
2023-03-28T22:06:07.292Z,2.14
2023-03-28T22:08:35.254Z,2.22
2023-03-28T22:11:04.435Z,2.26
2023-03-28T22:13:33.986Z,2.10
2023-03-28T22:16:02.597Z,2.01
2023-03-28T22:18:30.822Z,2.09
2023-03-28T22:21:02.575Z,2.17
2023-03-28T22:23:31.768Z,1.93
2023-03-28T22:25:59.854Z,2.00
2023-03-28T22:28:27.790Z,1.87
2023-03-28T22:30:57.646Z,1.92
2023-03-28T22:33:25.917Z,1.79
2023-03-28T22:35:54.291Z,1.86
2023-03-28T22:38:22.315Z,2.03
2023-03-28T22:40:50.472Z,2.02
2023-03-28T22:43:18.452Z,2.12
2023-03-28T22:45:46.478Z,2.14
2023-03-28T22:48:15.839Z,1.87
2023-03-28T22:50:45.379Z,1.97
2023-03-28T22:53:14.349Z,1.95
2023-03-28T22:55:46.400Z,2.07
2023-03-28T22:58:14.434Z,1.79
2023-03-28T23:00:43.858Z,1.74
2023-03-28T23:03:12.388Z,1.84
2023-03-28T23:05:42.169Z,1.78
2023-03-28T23:08:11.949Z,1.68
2023-03-28T23:10:40.585Z,1.73
2023-03-28T23:13:09.261Z,1.76
2023-03-28T23:15:37.247Z,1.49
2023-03-28T23:18:05.848Z,1.70
2023-03-28T23:20:33.787Z,1.64
2023-03-28T23:23:03.077Z,1.67
2023-03-28T23:25:31.016Z,1.63
2023-03-28T23:27:58.960Z,1.42
2023-03-28T23:30:27.108Z,1.24
2023-03-28T23:32:56.055Z,1.35
2023-03-28T23:35:23.991Z,1.49
2023-03-28T23:37:54.129Z,1.40
2023-03-28T23:40:24.435Z,1.41
2023-03-28T23:42:52.369Z,1.24
2023-03-28T23:45:20.391Z,1.25
2023-03-28T23:47:48.411Z,1.20
2023-03-28T23:50:16.611Z,1.01
2023-03-28T23:52:44.577Z,1.14
2023-03-28T23:55:12.534Z,1.25
2023-03-28T23:57:41.996Z,1.18
